createdAt,value
2024-03-11T09:11:17.379Z,94425.41
2024-03-11T09:13:49.165Z,94431.94
2024-03-11T09:16:20.773Z,94430.91
2024-03-11T09:18:53.539Z,94433.97
2024-03-11T09:21:25.217Z,94423.38
2024-03-11T09:23:56.888Z,94431.38
2024-03-11T09:26:28.564Z,94435.53
2024-03-11T09:29:00.200Z,94437.41
2024-03-11T09:31:31.846Z,94436.22
2024-03-11T09:34:04.189Z,94433.91
2024-03-11T09:36:37.275Z,94433.16
2024-03-11T09:39:15.519Z,94438.44
2024-03-11T09:41:51.203Z,94430.47
2024-03-11T09:44:24.692Z,94435.72
2024-03-11T09:46:57.266Z,94431.47
2024-03-11T09:49:32.410Z,94437.28
2024-03-11T09:52:04.744Z,94427.97
2024-03-11T09:54:37.498Z,94425.97
2024-03-11T09:57:09.418Z,94424.13
2024-03-11T09:59:47.222Z,94422.59
2024-03-11T10:02:28.163Z,94414.81
2024-03-11T10:04:59.770Z,94414.72
2024-03-11T10:07:31.565Z,94422.44
2024-03-11T10:10:11.766Z,94423.59
2024-03-11T10:12:59.452Z,94424.75
2024-03-11T10:15:34.021Z,94423.19
2024-03-11T10:18:26.495Z,94423.13
2024-03-11T10:21:01.355Z,94415.38
2024-03-11T10:23:32.957Z,94421.63
2024-03-11T10:26:18.831Z,94422.31
2024-03-11T10:28:50.896Z,94422.59
2024-03-11T10:31:32.771Z,94427.16
2024-03-11T10:34:15.141Z,94416.47
2024-03-11T10:36:52.444Z,94418.34
2024-03-11T10:39:24.509Z,94424.75
2024-03-11T10:41:58.520Z,94423.78
2024-03-11T10:44:34.719Z,94421.81
2024-03-11T10:47:16.722Z,94423.47
2024-03-11T10:49:51.754Z,94424.28
2024-03-11T10:52:25.809Z,94428.13
2024-03-11T10:57:46.832Z,94419.88
2024-03-11T11:00:19.483Z,94432.94
2024-03-11T11:02:59.571Z,94430.81
2024-03-11T11:05:36.778Z,94431.59
2024-03-11T11:08:08.504Z,94427.16
2024-03-11T11:10:46.888Z,94426.34
2024-03-11T11:13:22.706Z,94433.84
2024-03-11T11:15:56.049Z,94432.38
2024-03-11T11:18:28.910Z,94435.28
2024-03-11T11:21:01.607Z,94439.31
2024-03-11T11:23:36.444Z,94440.47
2024-03-11T11:26:08.386Z,94435.41
2024-03-11T11:28:40.851Z,94439.72
2024-03-11T11:31:27.491Z,94429.13
2024-03-11T11:34:06.210Z,94432.22
2024-03-11T11:36:38.113Z,94431.97
2024-03-11T11:39:16.145Z,94432.06
2024-03-11T11:41:53.569Z,94430.47
2024-03-11T11:44:35.032Z,94422.34
2024-03-11T11:47:16.116Z,94416.84
2024-03-11T11:49:49.693Z,94413.66
2024-03-11T11:52:26.877Z,94423.94
2024-03-11T11:55:08.277Z,94421.78
2024-03-11T11:57:41.686Z,94416.66
2024-03-11T12:00:21.439Z,94417.03
2024-03-11T12:02:54.334Z,94416.84
2024-03-11T12:05:25.782Z,94408.56
2024-03-11T12:07:57.350Z,94415.91
2024-03-11T12:10:29.381Z,94418.00
2024-03-11T12:13:01.439Z,94411.31
2024-03-11T12:15:35.386Z,94422.41
2024-03-11T12:18:13.955Z,94419.06
2024-03-11T12:20:45.519Z,94421.28
2024-03-11T12:23:18.360Z,94420.94
2024-03-11T12:25:50.708Z,94421.13
2024-03-11T12:28:23.273Z,94415.34
2024-03-11T12:30:55.165Z,94410.84
2024-03-11T12:33:29.747Z,94411.13
2024-03-11T12:36:06.078Z,94418.31
2024-03-11T12:38:37.829Z,94410.97
2024-03-11T12:41:10.847Z,94412.56
2024-03-11T12:43:43.016Z,94419.69
2024-03-11T12:46:18.378Z,94419.91
2024-03-11T12:48:52.308Z,94422.31
2024-03-11T12:51:24.159Z,94414.22
2024-03-11T12:54:09.349Z,94420.50
2024-03-11T12:56:43.722Z,94424.81
2024-03-11T12:59:15.280Z,94426.31
2024-03-11T13:01:47.158Z,94437.06
2024-03-11T13:04:20.511Z,94426.09
2024-03-11T13:06:55.005Z,94430.69
2024-03-11T13:09:28.763Z,94420.78
2024-03-11T13:12:09.307Z,94429.50
2024-03-11T13:14:42.789Z,94425.91
2024-03-11T13:17:15.168Z,94416.00
2024-03-11T13:19:47.958Z,94416.56
2024-03-11T13:22:19.704Z,94415.28
2024-03-11T13:25:03.620Z,94408.91
2024-03-11T13:27:36.091Z,94409.91
2024-03-11T13:30:14.732Z,94400.97
2024-03-11T13:32:46.740Z,94410.16
2024-03-11T13:35:18.341Z,94400.09
2024-03-11T13:37:49.854Z,94398.81
2024-03-11T13:40:21.505Z,94409.91
2024-03-11T13:42:53.246Z,94404.78
2024-03-11T13:45:25.399Z,94398.25
2024-03-11T13:48:00.423Z,94403.84
2024-03-11T13:50:34.377Z,94405.47
2024-03-11T13:53:08.408Z,94408.00
2024-03-11T13:55:39.989Z,94407.97
2024-03-11T13:58:14.747Z,94409.09
2024-03-11T14:00:49.361Z,94407.97
2024-03-11T14:03:22.075Z,94415.44
2024-03-11T14:05:56.379Z,94423.72
2024-03-11T14:08:29.457Z,94421.28
2024-03-11T14:11:01.284Z,94419.69
2024-03-11T14:13:34.316Z,94419.28
2024-03-11T14:16:07.051Z,94422.00
2024-03-11T14:18:41.877Z,94419.47
2024-03-11T14:21:14.083Z,94417.91
2024-03-11T14:23:45.934Z,94430.19
2024-03-11T14:26:17.696Z,94419.53
2024-03-11T14:28:53.711Z,94427.13
2024-03-11T14:31:26.942Z,94427.16
2024-03-11T14:33:58.607Z,94427.66
2024-03-11T14:36:30.441Z,94427.44
2024-03-11T14:39:02.067Z,94433.22
2024-03-11T14:41:34.042Z,94427.91
2024-03-11T14:44:07.534Z,94426.88
2024-03-11T14:46:44.562Z,94426.91
2024-03-11T14:49:24.898Z,94433.63
2024-03-11T14:51:57.264Z,94429.66
2024-03-11T14:54:31.106Z,94425.56
2024-03-11T14:57:03.351Z,94431.94
2024-03-11T14:59:36.426Z,94429.16
2024-03-11T15:02:09.890Z,94428.59
2024-03-11T15:04:41.662Z,94433.38
2024-03-11T15:07:14.701Z,94428.34
2024-03-11T15:09:46.412Z,94428.16
2024-03-11T15:12:18.193Z,94427.16
2024-03-11T15:14:49.808Z,94430.72
2024-03-11T15:17:24.466Z,94428.47
2024-03-11T15:19:56.572Z,94425.25
2024-03-11T15:22:30.659Z,94431.06
2024-03-11T15:25:02.322Z,94434.88
2024-03-11T15:27:33.941Z,94434.91
2024-03-11T15:30:09.021Z,94429.25
2024-03-11T15:32:41.097Z,94437.91
2024-03-11T15:35:12.488Z,94432.66
2024-03-11T15:37:44.321Z,94436.97
2024-03-11T15:40:16.798Z,94439.50
2024-03-11T15:42:50.041Z,94445.50
2024-03-11T15:45:22.578Z,94443.78
2024-03-11T15:47:54.223Z,94451.81
2024-03-11T15:50:27.486Z,94442.28
2024-03-11T15:52:59.378Z,94454.09
2024-03-11T15:55:33.188Z,94444.38
2024-03-11T15:58:05.306Z,94449.94
2024-03-11T16:00:37.867Z,94456.84
2024-03-11T16:03:10.282Z,94458.66
2024-03-11T16:05:41.892Z,94455.66
2024-03-11T16:08:20.948Z,94462.34
2024-03-11T16:10:53.835Z,94463.28
2024-03-11T16:13:25.502Z,94475.41
2024-03-11T16:15:57.140Z,94470.44
2024-03-11T16:18:29.574Z,94478.03
2024-03-11T16:21:01.769Z,94477.22
2024-03-11T16:23:34.237Z,94483.00
2024-03-11T16:26:05.862Z,94484.72
2024-03-11T16:28:37.902Z,94483.84
2024-03-11T16:31:10.858Z,94491.66
2024-03-11T16:33:44.304Z,94500.31
2024-03-11T16:36:16.343Z,94503.00
2024-03-11T16:38:52.824Z,94513.13
2024-03-11T16:41:27.011Z,94510.47
2024-03-11T16:43:59.022Z,94509.34
2024-03-11T16:46:30.825Z,94515.78
2024-03-11T16:49:03.910Z,94523.97
2024-03-11T16:51:35.568Z,94527.75
2024-03-11T16:54:10.654Z,94531.25
2024-03-11T16:56:46.051Z,94533.91
2024-03-11T16:59:18.184Z,94541.09
2024-03-11T17:01:52.952Z,94538.06
2024-03-11T17:04:24.632Z,94545.59
2024-03-11T17:06:59.088Z,94546.47
2024-03-11T17:09:30.990Z,94552.22
2024-03-11T17:12:02.591Z,94552.28
2024-03-11T17:14:34.194Z,94561.06
2024-03-11T17:17:07.144Z,94566.88
2024-03-11T17:19:39.162Z,94566.47
2024-03-11T17:22:11.697Z,94572.25
2024-03-11T17:24:43.367Z,94570.81
2024-03-11T17:27:19.049Z,94581.16
2024-03-11T17:29:50.648Z,94578.97
2024-03-11T17:32:22.220Z,94580.91
2024-03-11T17:34:53.755Z,94587.16
2024-03-11T17:37:25.409Z,94588.38
2024-03-11T17:39:57.106Z,94596.41
2024-03-11T17:42:28.841Z,94596.03
2024-03-11T17:45:02.375Z,94597.69
2024-03-11T17:47:33.997Z,94605.34
2024-03-11T17:50:08.308Z,94604.63
2024-03-11T17:52:47.152Z,94601.19
2024-03-11T17:55:27.405Z,94606.91
2024-03-11T17:58:01.072Z,94614.09
2024-03-11T18:00:34.977Z,94617.63
2024-03-11T18:03:09.578Z,94622.56
2024-03-11T18:05:41.786Z,94619.88
2024-03-11T18:08:15.196Z,94623.72
2024-03-11T18:10:47.308Z,94631.84
2024-03-11T18:13:19.046Z,94635.28
2024-03-11T18:15:50.759Z,94635.66
2024-03-11T18:18:22.512Z,94639.81
2024-03-11T18:20:55.633Z,94647.13
2024-03-11T18:23:27.754Z,94644.09
2024-03-11T18:26:00.913Z,94650.97
2024-03-11T18:28:33.149Z,94655.50
2024-03-11T18:31:07.132Z,94660.47
2024-03-11T18:33:38.952Z,94665.84
2024-03-11T18:36:11.006Z,94670.44
2024-03-11T18:38:44.001Z,94671.56
2024-03-11T18:41:15.587Z,94680.72
2024-03-11T18:43:48.334Z,94689.09
2024-03-11T18:46:19.929Z,94690.69
2024-03-11T18:48:51.640Z,94689.53
2024-03-11T18:51:23.659Z,94686.88
2024-03-11T18:53:55.370Z,94690.31
2024-03-11T18:56:26.963Z,94694.91
2024-03-11T18:58:58.542Z,94704.06
2024-03-11T19:01:30.236Z,94708.66
2024-03-11T19:04:04.658Z,94710.53
2024-03-11T19:06:36.353Z,94712.84
2024-03-11T19:09:09.248Z,94713.63
2024-03-11T19:11:41.974Z,94718.56
2024-03-11T19:14:15.457Z,94720.47
2024-03-11T19:16:47.321Z,94728.09
2024-03-11T19:19:19.572Z,94730.78
2024-03-11T19:21:52.992Z,94738.38
2024-03-11T19:24:25.020Z,94737.25
2024-03-11T19:27:03.188Z,94745.63
2024-03-11T19:29:37.049Z,94752.47
